createdAt,value
2019-03-24T00:01:18.174Z,95352.88
2019-03-24T00:06:20.090Z,95360.21
2019-03-24T00:11:23.372Z,95355.06
2019-03-24T00:16:25.251Z,95352.09
2019-03-24T00:21:27.151Z,95343.96
2019-03-24T00:26:28.996Z,95349.05
2019-03-24T00:31:30.814Z,95346.77
2019-03-24T00:36:32.520Z,95338.59
2019-03-24T00:41:34.331Z,95347.06
2019-03-24T00:46:36.051Z,95344.73
2019-03-24T00:51:37.887Z,95337.47
2019-03-24T00:56:39.681Z,95344.06
2019-03-24T01:01:41.460Z,95340.33
2019-03-24T01:06:43.260Z,95341.59
2019-03-24T01:11:46.040Z,95338.72
2019-03-24T01:16:47.778Z,95336.12
2019-03-24T01:21:50.612Z,95336.25
2019-03-24T01:26:52.448Z,95338.53
2019-03-24T01:31:54.192Z,95335.86
2019-03-24T01:36:55.990Z,95344.34
2019-03-24T01:41:57.824Z,95336.53
2019-03-24T01:46:59.943Z,95344.84
2019-03-24T01:52:01.795Z,95333.59
2019-03-24T01:57:03.525Z,95337.81
2019-03-24T02:02:05.358Z,95331.59
2019-03-24T02:07:07.129Z,95324.47
2019-03-24T02:12:08.920Z,95330.77
2019-03-24T02:17:10.672Z,95336.75
2019-03-24T02:22:12.444Z,95333.11
2019-03-24T02:27:14.198Z,95327.92
2019-03-24T02:32:15.992Z,95333.69
2019-03-24T02:37:17.823Z,95326.70
2019-03-24T02:42:19.671Z,95325.52
2019-03-24T02:47:21.469Z,95322.90
2019-03-24T02:52:24.203Z,95324.31
2019-03-24T02:57:25.992Z,95317.65
2019-03-24T03:02:27.800Z,95317.75
2019-03-24T03:07:29.555Z,95321.55
2019-03-24T03:12:32.328Z,95326.91
2019-03-24T03:17:35.243Z,95321.67
2019-03-24T03:22:36.977Z,95324.69
2019-03-24T03:27:38.754Z,95322.31
2019-03-24T03:32:41.373Z,95321.97
2019-03-24T03:37:43.101Z,95327.66
2019-03-24T03:42:44.843Z,95323.38
2019-03-24T03:47:46.605Z,95325.98
2019-03-24T03:52:48.381Z,95323.38
2019-03-24T03:57:51.383Z,95321.27
2019-03-24T04:02:53.148Z,95326.34
2019-03-24T04:07:55.109Z,95334.77
2019-03-24T04:12:56.969Z,95330.83
2019-03-24T04:17:58.735Z,95338.30
2019-03-24T04:23:00.498Z,95344.91
2019-03-24T04:28:02.310Z,95344.81
2019-03-24T04:33:04.161Z,95348.52
2019-03-24T04:38:06.034Z,95348.98
2019-03-24T04:43:07.803Z,95353.42
2019-03-24T04:48:09.678Z,95350.36
2019-03-24T04:53:11.565Z,95355.91
2019-03-24T04:58:13.343Z,95358.45
2019-03-24T05:03:15.184Z,95359.57
2019-03-24T05:08:16.964Z,95358.53
2019-03-24T05:13:18.735Z,95363.22
2019-03-24T05:18:20.536Z,95369.38
2019-03-24T05:23:22.371Z,95362.96
2019-03-24T05:28:24.225Z,95374.97
2019-03-24T05:33:25.948Z,95380.28
2019-03-24T05:38:27.743Z,95382.79
2019-03-24T05:43:29.464Z,95378.88
2019-03-24T05:48:31.272Z,95379.98
2019-03-24T05:53:33.053Z,95381.78
2019-03-24T05:58:34.901Z,95376.91
2019-03-24T06:03:36.622Z,95372.94
2019-03-24T06:08:38.439Z,95383.52
2019-03-24T06:13:40.276Z,95387.53
2019-03-24T06:18:42.059Z,95387.98
2019-03-24T06:23:43.814Z,95385.73
2019-03-24T06:28:45.616Z,95384.08
2019-03-24T06:33:47.339Z,95396.27
2019-03-24T06:38:49.159Z,95392.33
2019-03-24T06:43:50.907Z,95391.63
2019-03-24T06:48:52.823Z,95388.30
2019-03-24T06:53:54.666Z,95389.30
2019-03-24T06:58:56.530Z,95388.67
2019-03-24T07:03:58.341Z,95387.19
2019-03-24T07:09:00.253Z,95381.25
2019-03-24T07:14:02.156Z,95383.20
2019-03-24T07:19:04.079Z,95380.44
2019-03-24T07:24:05.887Z,95376.00
2019-03-24T07:29:07.692Z,95377.86
2019-03-24T07:34:09.484Z,95377.16
2019-03-24T07:39:11.316Z,95367.72
2019-03-24T07:44:13.321Z,95364.71
2019-03-24T07:49:15.060Z,95367.39
2019-03-24T07:54:16.906Z,95359.86
2019-03-24T07:59:18.780Z,95352.33
2019-03-24T08:04:20.679Z,95356.29
2019-03-24T08:09:22.683Z,95353.59
2019-03-24T08:14:24.454Z,95354.27
2019-03-24T08:19:26.384Z,95339.77
2019-03-24T08:24:28.248Z,95336.08
2019-03-24T08:29:29.973Z,95325.53
2019-03-24T08:34:31.825Z,95313.99
2019-03-24T08:39:33.568Z,95316.52
2019-03-24T08:44:35.402Z,95312.14
2019-03-24T08:49:39.070Z,95313.63
2019-03-24T08:54:40.874Z,95303.89
2019-03-24T08:59:42.721Z,95295.58
2019-03-24T09:04:44.587Z,95286.64
2019-03-24T09:09:46.494Z,95281.92
2019-03-24T09:14:48.255Z,95276.75
2019-03-24T09:19:50.746Z,95271.06
2019-03-24T09:24:53.121Z,95258.90
2019-03-24T09:29:54.883Z,95262.05
2019-03-24T09:34:56.811Z,95253.64
2019-03-24T09:39:58.691Z,95250.77
2019-03-24T09:45:01.931Z,95254.38
2019-03-24T09:50:04.331Z,95246.77
2019-03-24T09:55:06.360Z,95255.76
2019-03-24T10:06:23.785Z,95237.70
2019-03-24T10:11:25.687Z,95234.84
2019-03-24T10:16:27.495Z,95229.05
2019-03-24T10:21:29.243Z,95216.39
2019-03-24T10:26:31.060Z,95210.24
2019-03-24T10:31:37.998Z,95202.38
2019-03-24T10:36:45.111Z,95204.08
2019-03-24T10:41:47.100Z,95197.84
2019-03-24T10:46:49.132Z,95193.26
2019-03-24T10:51:51.129Z,95179.47
2019-03-24T10:56:53.093Z,95175.19
2019-03-24T11:01:56.456Z,95180.05
2019-03-24T11:06:58.418Z,95173.71
2019-03-24T11:12:00.385Z,95160.16
2019-03-24T11:17:02.432Z,95156.92
2019-03-24T11:22:04.377Z,95163.36
2019-03-24T11:27:06.183Z,95143.80
2019-03-24T11:32:08.258Z,95142.03
2019-03-24T11:37:11.756Z,95132.88
2019-03-24T11:42:13.739Z,95134.15
2019-03-24T11:47:26.022Z,95122.61
2019-03-24T11:52:19.999Z,95120.72
2019-03-24T11:57:21.785Z,95111.25
2019-03-24T12:02:23.762Z,95109.38
2019-03-24T12:07:25.629Z,95107.14
2019-03-24T12:12:28.357Z,95104.77
2019-03-24T12:17:30.055Z,95096.31
2019-03-24T12:22:32.048Z,95094.48
2019-03-24T12:27:34.022Z,95091.15
2019-03-24T12:32:36.050Z,95082.51
2019-03-24T12:37:38.142Z,95074.97
2019-03-24T12:42:40.062Z,95075.95
2019-03-24T12:47:43.326Z,95071.31
2019-03-24T12:52:45.147Z,95058.82
2019-03-24T12:57:47.066Z,95055.88
2019-03-24T13:02:48.949Z,95053.61
2019-03-24T13:07:50.984Z,95048.92
2019-03-24T13:12:53.006Z,95044.64
2019-03-24T13:17:54.890Z,95038.50
2019-03-24T13:22:56.698Z,95028.11
2019-03-24T13:27:58.632Z,95020.44
2019-03-24T13:33:00.598Z,95020.34
2019-03-24T13:38:02.672Z,95012.36
2019-03-24T13:43:04.546Z,95009.45
2019-03-24T13:48:06.749Z,95002.70
2019-03-24T13:53:08.577Z,94996.77
2019-03-24T13:58:12.236Z,94986.95
2019-03-24T14:03:14.662Z,94982.87
2019-03-24T14:08:16.612Z,94978.87
2019-03-24T14:13:19.155Z,94970.92
2019-03-24T14:18:21.033Z,94964.89
2019-03-24T14:23:23.163Z,94969.91
2019-03-24T14:28:25.094Z,94962.66
2019-03-24T14:33:27.048Z,94962.13
2019-03-24T14:38:29.036Z,94957.81
2019-03-24T14:43:30.925Z,94953.41
2019-03-24T14:48:33.016Z,94945.82
2019-03-24T14:53:35.304Z,94948.09
2019-03-24T14:58:37.390Z,94941.55
2019-03-24T15:03:39.307Z,94943.58
2019-03-24T15:08:41.175Z,94944.81
2019-03-24T15:13:43.040Z,94942.15
2019-03-24T15:18:45.046Z,94935.46
2019-03-24T15:23:47.150Z,94938.52
2019-03-24T15:28:50.681Z,94931.72
2019-03-24T15:33:53.194Z,94932.22
2019-03-24T15:38:55.237Z,94925.66
2019-03-24T15:43:56.988Z,94922.73
2019-03-24T15:48:59.019Z,94919.31
2019-03-24T15:54:00.864Z,94918.59
2019-03-24T15:59:04.523Z,94915.52
2019-03-24T16:04:08.958Z,94913.91
2019-03-24T16:09:10.967Z,94909.11
2019-03-24T16:14:13.158Z,94914.72
2019-03-24T16:19:15.004Z,94916.67
2019-03-24T16:24:17.027Z,94916.14
2019-03-24T16:29:19.057Z,94923.13
2019-03-24T16:34:32.198Z,94934.06
2019-03-24T16:39:34.908Z,94931.20
2019-03-24T16:44:38.498Z,94930.42
2019-03-24T16:49:40.585Z,94934.39
2019-03-24T16:54:42.616Z,94935.88
2019-03-24T16:59:45.600Z,94938.25
2019-03-24T17:04:47.776Z,94939.96
2019-03-24T17:09:49.725Z,94935.55
2019-03-24T17:14:51.785Z,94936.01
2019-03-24T17:19:55.516Z,94941.06
2019-03-24T17:24:57.330Z,94943.00
2019-03-24T17:29:59.327Z,94945.73
2019-03-24T17:35:01.109Z,94951.75
2019-03-24T17:40:05.495Z,94954.25
2019-03-24T17:45:08.755Z,94959.77
2019-03-24T17:50:12.082Z,94965.25
2019-03-24T17:55:14.732Z,94963.47
2019-03-24T18:00:30.159Z,94960.88
2019-03-24T18:05:31.940Z,94961.81
2019-03-24T18:10:34.573Z,94961.16
2019-03-24T18:15:36.762Z,94964.43
2019-03-24T18:20:40.713Z,94962.89
2019-03-24T18:25:44.367Z,94954.11
2019-03-24T18:30:47.093Z,94965.52
2019-03-24T18:35:49.106Z,94969.87
2019-03-24T18:40:51.084Z,94971.55
2019-03-24T18:45:56.694Z,94978.29
2019-03-24T18:50:58.740Z,94973.48
2019-03-24T18:56:00.710Z,94973.52
2019-03-24T19:01:02.752Z,94979.31
2019-03-24T19:06:05.839Z,94975.58
2019-03-24T19:11:07.821Z,94979.01
2019-03-24T19:16:09.779Z,94981.22
2019-03-24T19:21:11.765Z,94975.81
2019-03-24T19:26:13.673Z,94980.96
2019-03-24T19:31:15.602Z,94983.27
2019-03-24T19:36:17.556Z,94981.29
2019-03-24T19:41:19.418Z,94980.48
2019-03-24T19:46:22.450Z,94984.77
2019-03-24T19:51:24.338Z,94986.54
2019-03-24T19:56:26.249Z,94983.67
2019-03-24T20:01:28.184Z,94987.87
2019-03-24T20:06:31.243Z,94985.23
2019-03-24T20:11:33.236Z,94985.73
2019-03-24T20:16:35.094Z,94989.34
2019-03-24T20:21:36.956Z,94989.31
2019-03-24T20:26:38.821Z,94988.43
2019-03-24T20:31:41.090Z,94986.89
2019-03-24T20:36:42.922Z,94978.44
2019-03-24T20:41:44.811Z,94976.03
2019-03-24T20:46:46.874Z,94975.99
2019-03-24T20:51:48.728Z,94974.28
2019-03-24T20:56:51.668Z,94970.35
2019-03-24T21:01:54.363Z,94973.38
2019-03-24T21:06:57.496Z,94976.80
2019-03-24T21:11:59.388Z,94974.83
2019-03-24T21:17:01.174Z,94969.33
2019-03-24T21:22:02.917Z,94966.64
2019-03-24T21:27:07.061Z,94957.48
2019-03-24T21:32:08.528Z,94964.60
2019-03-24T21:37:10.312Z,94965.91
2019-03-24T21:42:12.268Z,94960.31
2019-03-24T21:47:14.108Z,94957.31
2019-03-24T21:52:15.952Z,94954.77
2019-03-24T21:57:17.830Z,94952.77
2019-03-24T22:02:19.637Z,94943.30
2019-03-24T22:07:21.515Z,94946.67
2019-03-24T22:12:23.437Z,94942.92
2019-03-24T22:17:25.597Z,94936.94
2019-03-24T22:22:27.425Z,94927.52
2019-03-24T22:27:29.180Z,94926.09
2019-03-24T22:32:30.974Z,94921.41
2019-03-24T22:37:32.776Z,94928.72
2019-03-24T22:42:34.565Z,94920.20
2019-03-24T22:47:36.298Z,94922.23
2019-03-24T22:52:38.064Z,94920.97
2019-03-24T22:57:39.804Z,94917.86
2019-03-24T23:02:41.675Z,94913.54
2019-03-24T23:07:43.407Z,94902.02
2019-03-24T23:12:45.222Z,94902.98
2019-03-24T23:17:46.925Z,94911.06
2019-03-24T23:22:48.682Z,94905.48
2019-03-24T23:27:50.484Z,94912.66
2019-03-24T23:32:52.271Z,94904.80
2019-03-24T23:37:54.086Z,94903.83
2019-03-24T23:42:55.832Z,94898.15
2019-03-24T23:47:57.590Z,94882.79
2019-03-24T23:52:59.319Z,94887.90
2019-03-24T23:58:01.068Z,94882.13
